Brooklyn, New York
Current Conditions -  °F | °C
As of 4:51 AM on Wednesday 26 Nov 2014 (Local Time) from KJFK Reporting Station
Overcast Overcast  
Wind Chill: 10°   Ceiling: 10000
Heat Index: 10°   Visibility: 10mi
Dew Point: -3°   Wind: 8mph
Humidity: 39%   Direction: 10°N
Pressure: 30.13"   Gusts: NA
Location:  40.64°N, 73.96°W
Report Text: KJFK 260951Z 01007KT 10SM OVC100 10/M03 A3013 RMK AO2 PRESRR SLP202 T01001033 $
Loading
Personal Weather Stations






























Interactive Weather Map New forecast layout! Learn more

10-Day Weather Forecast

Advertisements
Track Severe Weather on mobile